createdAt,value
2018-07-02T00:00:10.346Z,59.14
2018-07-02T00:02:39.010Z,58.94
2018-07-02T00:05:07.938Z,59.51
2018-07-02T00:07:36.676Z,59.56
2018-07-02T00:10:06.079Z,59.55
2018-07-02T00:12:34.838Z,59.48
2018-07-02T00:15:03.513Z,59.90
2018-07-02T00:17:32.140Z,59.79
2018-07-02T00:20:01.009Z,60.00
2018-07-02T00:22:29.667Z,60.48
2018-07-02T00:24:58.456Z,59.82
2018-07-02T00:27:27.042Z,60.11
2018-07-02T00:29:56.148Z,60.12
2018-07-02T00:32:24.937Z,60.47
2018-07-02T00:34:54.037Z,60.51
2018-07-02T00:37:22.654Z,60.97
2018-07-02T00:39:51.612Z,60.67
2018-07-02T00:42:20.373Z,61.59
2018-07-02T00:44:49.129Z,61.66
2018-07-02T00:47:17.982Z,60.91
2018-07-02T00:49:46.821Z,61.10
2018-07-02T00:52:15.965Z,60.38
2018-07-02T00:54:44.548Z,60.37
2018-07-02T00:57:13.371Z,61.17
2018-07-02T00:59:42.331Z,61.18
2018-07-02T01:02:11.153Z,60.67
2018-07-02T01:04:39.972Z,61.00
2018-07-02T01:07:09.619Z,61.13
2018-07-02T01:09:38.788Z,60.87
2018-07-02T01:12:07.849Z,61.19
2018-07-02T01:14:36.731Z,61.38
2018-07-02T01:17:05.456Z,60.65
2018-07-02T01:19:34.440Z,60.39
2018-07-02T01:22:03.026Z,60.84
2018-07-02T01:24:31.592Z,60.71
2018-07-02T01:27:00.203Z,60.42
2018-07-02T01:29:29.372Z,60.49
2018-07-02T01:31:58.165Z,61.28
2018-07-02T01:34:27.019Z,61.22
2018-07-02T01:36:55.590Z,61.23
2018-07-02T01:39:24.430Z,61.29
2018-07-02T01:41:53.284Z,61.62
2018-07-02T01:44:21.900Z,62.23
2018-07-02T01:46:50.793Z,61.94
2018-07-02T01:49:19.373Z,61.72
2018-07-02T01:51:47.957Z,61.85
2018-07-02T01:54:16.506Z,62.70
2018-07-02T01:56:45.234Z,62.57
2018-07-02T01:59:13.836Z,62.68
2018-07-02T02:01:42.399Z,62.84
2018-07-02T02:04:11.206Z,62.62
2018-07-02T02:06:39.760Z,63.47
2018-07-02T02:09:09.854Z,63.37
2018-07-02T02:11:38.643Z,63.63
2018-07-02T02:14:07.989Z,63.41
2018-07-02T02:16:36.934Z,63.69
2018-07-02T02:19:06.144Z,64.26
2018-07-02T02:21:34.827Z,64.44
2018-07-02T02:24:03.417Z,64.53
2018-07-02T02:26:32.031Z,64.31
2018-07-02T02:29:00.627Z,64.89
2018-07-02T02:31:29.218Z,65.20
2018-07-02T02:33:57.931Z,65.45
2018-07-02T02:36:27.004Z,64.99
2018-07-02T02:38:55.650Z,65.06
2018-07-02T02:41:24.430Z,65.89
2018-07-02T02:43:53.045Z,65.48
2018-07-02T02:46:21.706Z,65.93
2018-07-02T02:48:50.248Z,66.32
2018-07-02T02:51:19.036Z,67.21
2018-07-02T02:53:47.677Z,67.32
2018-07-02T02:56:16.244Z,68.37
2018-07-02T02:58:45.013Z,68.18
2018-07-02T03:01:13.576Z,68.35
2018-07-02T03:03:42.576Z,68.01
2018-07-02T03:06:11.502Z,67.66
2018-07-02T03:08:40.265Z,68.00
2018-07-02T03:11:08.943Z,67.52
2018-07-02T03:13:37.658Z,67.87
2018-07-02T03:16:06.763Z,68.50
2018-07-02T03:18:35.528Z,68.87
2018-07-02T03:21:04.203Z,68.98
2018-07-02T03:23:33.127Z,68.99
2018-07-02T03:26:01.701Z,69.27
2018-07-02T03:28:30.477Z,69.84
2018-07-02T03:30:59.025Z,69.59
2018-07-02T03:33:27.629Z,69.65
2018-07-02T03:35:56.602Z,69.64
2018-07-02T03:38:25.197Z,70.40
2018-07-02T03:40:53.922Z,70.55
2018-07-02T03:43:22.719Z,70.76
2018-07-02T03:45:51.348Z,70.35
2018-07-02T03:48:19.909Z,70.68
2018-07-02T03:50:49.738Z,70.48
2018-07-02T03:53:18.596Z,70.97
2018-07-02T03:55:55.418Z,71.42
2018-07-02T03:58:29.758Z,70.35
2018-07-02T04:00:58.304Z,70.34
2018-07-02T04:03:26.940Z,70.87
2018-07-02T04:05:55.494Z,70.86
2018-07-02T04:08:24.092Z,70.75
2018-07-02T04:10:54.396Z,70.49
2018-07-02T04:13:34.450Z,70.24
2018-07-02T04:16:10.479Z,70.12
2018-07-02T04:18:42.401Z,69.74
2018-07-02T04:21:12.043Z,70.09
2018-07-02T04:23:40.658Z,70.05
2018-07-02T04:26:10.745Z,69.79
2018-07-02T04:28:45.420Z,69.26
2018-07-02T04:31:14.577Z,69.06
2018-07-02T04:33:43.693Z,68.96
2018-07-02T04:36:12.614Z,69.26
2018-07-02T04:38:41.970Z,69.11
2018-07-02T04:41:11.476Z,69.10
2018-07-02T04:43:41.307Z,68.87
2018-07-02T04:46:09.906Z,69.33
2018-07-02T04:48:38.730Z,68.86
2018-07-02T04:51:11.007Z,68.71
2018-07-02T04:53:42.098Z,69.14
2018-07-02T04:56:16.728Z,68.29
2018-07-02T04:58:51.828Z,68.28
2018-07-02T05:01:25.175Z,68.26
2018-07-02T05:03:58.015Z,68.00
2018-07-02T05:06:27.804Z,65.82
2018-07-02T05:09:00.789Z,63.37
2018-07-02T05:11:30.792Z,63.38
2018-07-02T05:14:03.014Z,64.20
2018-07-02T05:16:36.458Z,63.95
2018-07-02T05:19:09.170Z,64.27
2018-07-02T05:21:55.333Z,65.40
2018-07-02T05:24:35.787Z,64.91
2018-07-02T05:27:05.329Z,65.62
2018-07-02T05:29:34.443Z,64.99
2018-07-02T05:32:17.428Z,65.46
2018-07-02T05:35:13.718Z,66.56
2018-07-02T05:38:13.071Z,66.09
2018-07-02T05:40:57.427Z,63.48
2018-07-02T05:43:48.882Z,60.08
2018-07-02T05:46:20.748Z,56.57
2018-07-02T05:51:43.206Z,53.08
2018-07-02T05:54:19.855Z,51.89
2018-07-02T05:57:20.951Z,53.94
2018-07-02T06:05:55.458Z,51.83
2018-07-02T06:08:25.335Z,53.24
2018-07-02T06:10:57.309Z,51.68
2018-07-02T06:13:29.280Z,50.14
2018-07-02T06:16:04.632Z,49.76
2018-07-02T06:19:02.682Z,49.62
2018-07-02T06:21:41.322Z,48.98
2018-07-02T06:24:22.924Z,48.37
2018-07-02T06:27:17.902Z,48.59
2018-07-02T06:30:04.041Z,47.17
2018-07-02T06:33:30.045Z,49.62
2018-07-02T06:42:50.209Z,49.64
2018-07-02T06:45:32.487Z,49.65
2018-07-02T06:51:13.019Z,51.60
2018-07-02T06:54:13.608Z,51.34
2018-07-02T07:03:30.084Z,49.42
2018-07-02T07:06:18.067Z,49.23
2018-07-02T07:09:26.417Z,48.37
2018-07-02T07:11:54.989Z,49.16
2018-07-02T07:14:23.802Z,48.77
2018-07-02T07:16:52.385Z,50.03
2018-07-02T07:19:20.975Z,50.86
2018-07-02T07:21:49.474Z,49.80
2018-07-02T07:24:18.022Z,50.19
2018-07-02T07:26:46.519Z,49.41
2018-07-02T07:29:15.123Z,48.89
2018-07-02T07:31:43.702Z,49.13
2018-07-02T07:34:12.199Z,48.79
2018-07-02T07:36:40.822Z,46.21
2018-07-02T07:39:10.796Z,48.90
2018-07-02T07:41:39.387Z,47.94
2018-07-02T07:44:07.924Z,46.37
2018-07-02T07:46:36.473Z,46.63
2018-07-02T07:49:05.539Z,48.01
2018-07-02T07:51:34.222Z,48.73
2018-07-02T07:54:13.067Z,48.16
2018-07-02T07:56:50.599Z,47.42
2018-07-02T07:59:48.084Z,44.87
2018-07-02T08:02:27.370Z,45.43
2018-07-02T08:05:14.110Z,43.99
2018-07-02T08:07:42.669Z,42.97
2018-07-02T08:10:11.259Z,43.57
2018-07-02T08:12:39.859Z,44.20
2018-07-02T08:15:08.456Z,43.53
2018-07-02T08:17:37.019Z,41.51
2018-07-02T08:20:06.374Z,43.10
2018-07-02T08:22:35.940Z,44.04
2018-07-02T08:25:04.783Z,42.25
2018-07-02T08:27:33.354Z,41.56
2018-07-02T08:30:05.988Z,41.37
2018-07-02T08:32:48.069Z,39.63
2018-07-02T08:35:38.518Z,40.51
2018-07-02T08:38:18.822Z,39.79
2018-07-02T08:40:47.695Z,40.27
2018-07-02T08:43:16.312Z,39.65
2018-07-02T08:45:44.949Z,39.88
2018-07-02T08:48:13.643Z,40.20
2018-07-02T08:50:42.415Z,39.43
2018-07-02T08:53:11.172Z,40.60
2018-07-02T08:55:39.833Z,39.40
2018-07-02T08:58:08.501Z,40.99
2018-07-02T09:00:37.005Z,40.02
2018-07-02T09:03:06.311Z,39.37
2018-07-02T09:05:35.263Z,38.71
2018-07-02T09:08:03.808Z,38.68
2018-07-02T09:10:32.437Z,39.35
2018-07-02T09:13:01.106Z,38.26
2018-07-02T09:15:29.726Z,36.88
2018-07-02T09:17:58.260Z,38.13
2018-07-02T09:20:26.863Z,38.47
2018-07-02T09:22:55.593Z,37.50
2018-07-02T09:25:24.081Z,36.33
2018-07-02T09:27:52.646Z,37.83
2018-07-02T09:30:21.484Z,35.72
2018-07-02T09:32:50.123Z,35.47
2018-07-02T09:35:18.751Z,36.21
2018-07-02T09:37:47.424Z,36.11
2018-07-02T09:40:16.021Z,35.85
2018-07-02T09:42:44.628Z,35.37
2018-07-02T09:45:13.746Z,34.43
2018-07-02T09:47:42.489Z,32.82
2018-07-02T09:50:11.376Z,33.66
2018-07-02T09:52:40.139Z,32.19
2018-07-02T09:55:08.777Z,32.17
2018-07-02T09:57:38.010Z,32.21
2018-07-02T10:00:06.631Z,32.22
2018-07-02T10:02:35.475Z,32.77
2018-07-02T10:05:04.462Z,33.42
2018-07-02T10:07:33.569Z,34.39
2018-07-02T10:10:02.094Z,32.55
2018-07-02T10:12:42.653Z,32.20
2018-07-02T10:15:23.843Z,32.39
2018-07-02T10:18:05.791Z,30.63
2018-07-02T10:23:43.495Z,30.80
2018-07-02T10:26:12.261Z,31.34
2018-07-02T10:28:40.930Z,33.02
2018-07-02T10:31:09.447Z,32.63
2018-07-02T10:33:37.918Z,33.46
2018-07-02T10:36:06.447Z,31.33
2018-07-02T10:38:34.972Z,32.14
2018-07-02T10:41:03.509Z,32.60
2018-07-02T10:43:32.022Z,30.99
2018-07-02T10:46:00.551Z,30.86
2018-07-02T10:48:29.324Z,31.76
2018-07-02T10:50:58.081Z,32.57
2018-07-02T10:53:26.514Z,32.91
2018-07-02T10:55:55.117Z,33.61
2018-07-02T10:58:23.636Z,31.47
2018-07-02T11:00:52.245Z,32.84
2018-07-02T11:03:20.806Z,33.35
2018-07-02T11:05:49.510Z,33.20
2018-07-02T11:08:18.072Z,32.89
2018-07-02T11:10:46.627Z,33.60
2018-07-02T11:13:15.449Z,33.57
2018-07-02T11:15:44.524Z,32.78
2018-07-02T11:18:13.372Z,32.60
2018-07-02T11:20:42.479Z,33.02
2018-07-02T11:23:11.634Z,32.89
2018-07-02T11:25:40.571Z,33.23
2018-07-02T11:28:09.221Z,33.56
2018-07-02T11:30:37.905Z,33.36
2018-07-02T11:33:06.637Z,33.22
2018-07-02T11:35:35.250Z,33.54
2018-07-02T11:38:03.811Z,33.29
2018-07-02T11:40:32.296Z,32.55
2018-07-02T11:43:00.943Z,33.26
2018-07-02T11:45:29.481Z,33.25
2018-07-02T11:47:57.971Z,32.91
2018-07-02T11:50:26.577Z,32.83
2018-07-02T11:52:55.183Z,32.90
2018-07-02T11:55:23.742Z,32.64
2018-07-02T11:57:56.279Z,32.40
2018-07-02T12:00:24.951Z,32.50
2018-07-02T12:02:53.469Z,32.04
2018-07-02T12:05:22.200Z,33.03
2018-07-02T12:07:50.839Z,32.41
2018-07-02T12:10:19.388Z,33.11
2018-07-02T12:12:47.993Z,32.50
2018-07-02T12:15:16.557Z,32.68
2018-07-02T12:17:45.202Z,32.73
2018-07-02T12:20:13.749Z,33.33
2018-07-02T12:22:42.301Z,32.51
2018-07-02T12:25:10.951Z,32.62
2018-07-02T12:27:39.566Z,33.00
2018-07-02T12:30:08.183Z,33.10
2018-07-02T12:32:36.885Z,32.70
2018-07-02T12:35:05.490Z,32.93
2018-07-02T12:37:34.057Z,32.18
2018-07-02T12:40:02.579Z,32.97
2018-07-02T12:42:31.038Z,33.28
2018-07-02T12:44:59.933Z,32.84
2018-07-02T12:47:28.498Z,31.97
2018-07-02T12:49:57.012Z,32.30
2018-07-02T12:52:25.572Z,32.16
2018-07-02T12:54:54.118Z,32.41
2018-07-02T12:57:23.075Z,32.40
2018-07-02T12:59:51.617Z,32.95
2018-07-02T13:02:20.278Z,32.74
2018-07-02T13:04:48.846Z,32.00
2018-07-02T13:07:17.463Z,32.02
2018-07-02T13:09:46.007Z,32.68
2018-07-02T13:12:14.713Z,31.91
2018-07-02T13:14:43.656Z,32.00
2018-07-02T13:17:12.173Z,32.25
2018-07-02T13:19:40.749Z,31.49
2018-07-02T13:22:09.427Z,31.38
2018-07-02T13:24:38.062Z,31.22
2018-07-02T13:27:06.677Z,31.64
2018-07-02T13:29:35.251Z,31.98
2018-07-02T13:32:03.758Z,31.65
2018-07-02T13:34:32.255Z,32.15
2018-07-02T13:37:00.807Z,31.28
2018-07-02T13:39:29.318Z,32.20
2018-07-02T13:41:57.875Z,31.92
2018-07-02T13:44:26.618Z,31.58
2018-07-02T13:46:55.159Z,31.59
2018-07-02T13:49:23.707Z,31.93
2018-07-02T13:51:52.270Z,32.20
2018-07-02T13:54:20.788Z,32.05
2018-07-02T13:56:49.317Z,31.88
2018-07-02T13:59:17.856Z,31.53
2018-07-02T14:01:46.469Z,31.33
2018-07-02T14:04:15.309Z,31.77
2018-07-02T14:06:43.889Z,31.56
2018-07-02T14:09:12.839Z,31.25
2018-07-02T14:11:42.032Z,31.10
2018-07-02T14:14:10.567Z,30.56
2018-07-02T14:16:39.133Z,30.74
2018-07-02T14:19:07.945Z,31.10
2018-07-02T14:21:36.631Z,30.24
2018-07-02T14:24:05.345Z,30.03
2018-07-02T14:26:33.885Z,30.32
2018-07-02T14:29:02.374Z,30.27
2018-07-02T14:31:31.135Z,30.65
2018-07-02T14:33:59.675Z,30.23
2018-07-02T14:36:28.411Z,30.99
2018-07-02T14:38:56.870Z,31.67
2018-07-02T14:41:25.423Z,30.92
2018-07-02T14:43:54.198Z,31.10
2018-07-02T14:46:23.156Z,31.76
2018-07-02T14:48:51.632Z,31.53
2018-07-02T14:51:20.278Z,31.45
2018-07-02T14:53:48.841Z,31.53
2018-07-02T14:56:17.992Z,31.37
2018-07-02T14:58:46.522Z,31.13
2018-07-02T15:01:15.599Z,30.87
2018-07-02T15:03:44.488Z,31.62
2018-07-02T15:06:13.547Z,32.25
2018-07-02T15:08:42.171Z,32.37
2018-07-02T15:11:10.753Z,32.75
2018-07-02T15:13:39.776Z,31.41
2018-07-02T15:16:08.483Z,32.53
2018-07-02T15:18:37.045Z,30.58
2018-07-02T15:21:06.140Z,30.82
2018-07-02T15:23:35.040Z,32.17
2018-07-02T15:26:04.136Z,31.03
2018-07-02T15:28:32.662Z,31.30
2018-07-02T15:31:01.313Z,30.79
2018-07-02T15:33:29.797Z,30.81
2018-07-02T15:35:58.524Z,30.40
2018-07-02T15:38:27.676Z,30.58
2018-07-02T15:40:56.299Z,30.82
2018-07-02T15:43:25.426Z,31.13
2018-07-02T15:45:54.571Z,31.50
2018-07-02T15:48:23.318Z,31.51
2018-07-02T15:50:51.824Z,31.61
2018-07-02T15:53:20.408Z,30.91
2018-07-02T15:55:49.271Z,31.06
2018-07-02T15:58:17.850Z,30.94
2018-07-02T16:00:46.716Z,30.85
2018-07-02T16:03:15.634Z,30.91
2018-07-02T16:05:44.522Z,30.58
2018-07-02T16:08:13.242Z,30.50
2018-07-02T16:10:41.796Z,31.06
2018-07-02T16:13:10.337Z,29.89
2018-07-02T16:15:39.070Z,29.71
2018-07-02T16:18:07.927Z,30.64
2018-07-02T16:20:36.653Z,30.38
2018-07-02T16:23:05.193Z,30.01
2018-07-02T16:25:34.149Z,29.78
2018-07-02T16:28:02.650Z,29.84
2018-07-02T16:30:31.353Z,30.01
2018-07-02T16:32:59.854Z,30.30
2018-07-02T16:35:28.437Z,30.03
2018-07-02T16:37:56.970Z,30.27
2018-07-02T16:40:25.596Z,30.44
2018-07-02T16:42:54.161Z,30.11
2018-07-02T16:45:22.729Z,30.34
2018-07-02T16:47:51.472Z,29.84
2018-07-02T16:50:20.077Z,29.97
2018-07-02T16:52:48.606Z,30.06
2018-07-02T16:55:17.254Z,30.10
2018-07-02T16:57:45.819Z,30.88
2018-07-02T17:00:14.364Z,30.47
2018-07-02T17:02:42.966Z,30.07
2018-07-02T17:05:11.654Z,30.41
2018-07-02T17:07:40.147Z,30.39
2018-07-02T17:10:08.887Z,30.92
2018-07-02T17:12:37.508Z,30.20
2018-07-02T17:15:07.068Z,30.59
2018-07-02T17:17:35.787Z,29.88
2018-07-02T17:20:04.976Z,30.56
2018-07-02T17:22:33.632Z,30.66
2018-07-02T17:25:02.264Z,30.82
2018-07-02T17:27:30.919Z,30.79
2018-07-02T17:29:59.537Z,30.70
2018-07-02T17:32:28.450Z,31.55
2018-07-02T17:34:57.185Z,31.43
2018-07-02T17:37:25.892Z,30.41
2018-07-02T17:39:58.492Z,31.42
2018-07-02T17:42:28.776Z,31.75
2018-07-02T17:44:57.582Z,31.88
2018-07-02T17:47:26.192Z,32.12
2018-07-02T17:49:54.856Z,31.24
2018-07-02T17:52:23.515Z,31.32
2018-07-02T17:54:52.330Z,31.88
2018-07-02T17:57:23.251Z,31.73
2018-07-02T17:59:52.336Z,31.33
2018-07-02T18:02:22.117Z,31.72
2018-07-02T18:04:52.740Z,31.35
2018-07-02T18:07:22.990Z,30.96
2018-07-02T18:09:55.098Z,31.06
2018-07-02T18:12:24.098Z,31.30
2018-07-02T18:14:53.646Z,31.52
2018-07-02T18:17:26.782Z,31.54
2018-07-02T18:19:56.734Z,31.88
2018-07-02T18:22:25.728Z,32.00
2018-07-02T18:24:55.207Z,31.51
2018-07-02T18:27:24.031Z,31.29
2018-07-02T18:29:53.248Z,32.03
2018-07-02T18:32:25.234Z,31.09
2018-07-02T18:34:54.220Z,31.19
2018-07-02T18:37:23.132Z,31.60
2018-07-02T18:39:55.814Z,31.96
2018-07-02T18:42:26.954Z,32.00
2018-07-02T18:44:56.205Z,31.33
2018-07-02T18:47:27.875Z,31.64
2018-07-02T18:50:00.195Z,31.78
2018-07-02T18:52:33.297Z,32.61
2018-07-02T18:55:02.045Z,32.09
2018-07-02T18:57:41.547Z,32.62
2018-07-02T19:00:10.203Z,32.75
2018-07-02T19:02:40.197Z,33.35
2018-07-02T19:05:08.742Z,33.42
2018-07-02T19:07:37.895Z,33.58
2018-07-02T19:10:08.186Z,33.81
2018-07-02T19:12:37.274Z,33.41
2018-07-02T19:15:06.747Z,34.30
2018-07-02T19:17:35.550Z,34.19
2018-07-02T19:20:04.307Z,34.47
2018-07-02T19:22:32.891Z,34.29
2018-07-02T19:25:01.595Z,34.53
2018-07-02T19:27:30.422Z,34.42
2018-07-02T19:29:59.068Z,34.66
2018-07-02T19:32:27.633Z,34.57
2018-07-02T19:34:59.538Z,34.51
2018-07-02T19:37:28.280Z,34.61
2018-07-02T19:39:57.065Z,35.11
2018-07-02T19:42:25.658Z,35.03
2018-07-02T19:44:54.220Z,35.57
2018-07-02T19:47:23.706Z,35.37
2018-07-02T19:49:52.275Z,35.62
2018-07-02T19:52:20.944Z,35.49
2018-07-02T19:54:49.740Z,35.79
2018-07-02T19:57:18.417Z,35.93
2018-07-02T19:59:47.084Z,36.26
2018-07-02T20:02:15.678Z,36.84
2018-07-02T20:04:44.444Z,38.00
2018-07-02T20:07:13.148Z,38.64
2018-07-02T20:09:42.339Z,37.40
2018-07-02T20:12:12.977Z,38.12
2018-07-02T20:14:42.136Z,37.98
2018-07-02T20:17:11.486Z,38.46
2018-07-02T20:19:40.787Z,39.80
2018-07-02T20:22:09.840Z,39.47
2018-07-02T20:24:38.537Z,40.76
2018-07-02T20:27:18.326Z,40.87
2018-07-02T20:29:53.572Z,41.17
2018-07-02T20:32:22.119Z,40.64
2018-07-02T20:34:50.915Z,41.30
2018-07-02T20:37:19.817Z,42.30
2018-07-02T20:39:48.400Z,41.55
2018-07-02T20:42:20.554Z,42.87
2018-07-02T20:44:49.860Z,42.91
2018-07-02T20:47:18.482Z,43.22
2018-07-02T20:49:47.109Z,42.69
2018-07-02T20:52:15.753Z,43.80
2018-07-02T20:54:44.721Z,44.05
2018-07-02T20:57:13.435Z,44.90
2018-07-02T20:59:42.389Z,45.03
2018-07-02T21:02:10.860Z,45.22
2018-07-02T21:04:39.519Z,46.06
2018-07-02T21:07:09.366Z,46.39
2018-07-02T21:09:38.130Z,46.58
2018-07-02T21:12:08.637Z,47.77
2018-07-02T21:14:37.481Z,47.77
2018-07-02T21:17:06.137Z,47.69
2018-07-02T21:19:34.712Z,45.11
2018-07-02T21:22:03.530Z,45.10
2018-07-02T21:24:32.365Z,45.31
2018-07-02T21:27:00.885Z,46.08
2018-07-02T21:29:29.547Z,46.42
2018-07-02T21:31:58.407Z,47.17
2018-07-02T21:34:27.045Z,47.26
2018-07-02T21:36:55.779Z,47.74
2018-07-02T21:39:24.242Z,48.60
2018-07-02T21:41:53.112Z,48.64
2018-07-02T21:44:21.718Z,49.53
2018-07-02T21:46:50.633Z,49.60
2018-07-02T21:49:19.322Z,48.75
2018-07-02T21:51:47.981Z,49.19
2018-07-02T21:54:16.555Z,49.26
2018-07-02T21:56:45.452Z,49.44
2018-07-02T21:59:14.515Z,48.74
2018-07-02T22:01:43.201Z,49.15
2018-07-02T22:04:11.905Z,48.75
2018-07-02T22:06:40.795Z,49.15
2018-07-02T22:09:10.553Z,48.81
2018-07-02T22:11:39.468Z,49.01
2018-07-02T22:14:08.657Z,48.54
2018-07-02T22:16:37.418Z,49.25
2018-07-02T22:19:06.528Z,49.69
2018-07-02T22:21:35.492Z,48.42
2018-07-02T22:24:04.120Z,49.31
2018-07-02T22:26:34.040Z,50.15
2018-07-02T22:29:02.992Z,49.62
2018-07-02T22:31:31.649Z,50.12
2018-07-02T22:34:00.843Z,50.01
2018-07-02T22:36:29.771Z,49.47
2018-07-02T22:38:58.747Z,49.61
2018-07-02T22:41:27.905Z,48.99
2018-07-02T22:43:56.627Z,49.48
2018-07-02T22:46:32.038Z,49.38
2018-07-02T22:49:00.683Z,48.93
2018-07-02T22:51:29.267Z,49.61
2018-07-02T22:53:57.795Z,49.40
2018-07-02T22:56:26.298Z,50.07
2018-07-02T22:58:54.882Z,50.09
2018-07-02T23:01:23.582Z,51.34
2018-07-02T23:03:52.094Z,51.05
2018-07-02T23:06:20.590Z,52.54
2018-07-02T23:08:49.172Z,51.93
2018-07-02T23:11:17.716Z,52.63
2018-07-02T23:13:46.210Z,51.97
2018-07-02T23:16:14.761Z,53.39
2018-07-02T23:18:43.295Z,52.79
2018-07-02T23:21:11.791Z,53.90
2018-07-02T23:23:40.322Z,53.75
2018-07-02T23:26:08.909Z,54.53
2018-07-02T23:28:37.675Z,54.52
2018-07-02T23:31:06.282Z,55.11
2018-07-02T23:33:34.749Z,54.74
2018-07-02T23:36:03.310Z,56.04
2018-07-02T23:38:31.975Z,55.97
2018-07-02T23:41:01.200Z,55.58
2018-07-02T23:43:29.928Z,56.08
2018-07-02T23:45:58.528Z,56.79
2018-07-02T23:48:27.008Z,56.98
2018-07-02T23:50:55.723Z,57.50
2018-07-02T23:53:24.255Z,58.90
2018-07-02T23:55:52.764Z,58.90
2018-07-02T23:58:21.409Z,59.33
